sensor_id;sensor_type;location;lat;lon;timestamp;pressure;altitude;pressure_sealevel;temperature;humidity
74542;BME280;63015;45.378;20.360;2023-06-24T00:01:25;100810.91;;;20.57;74.22
74542;BME280;63015;45.378;20.360;2023-06-24T00:03:26;100815.25;;;20.83;72.78
74542;BME280;63015;45.378;20.360;2023-06-24T00:05:26;100834.63;;;20.85;72.68
74542;BME280;63015;45.378;20.360;2023-06-24T00:07:27;100829.31;;;20.85;72.71
74542;BME280;63015;45.378;20.360;2023-06-24T00:09:28;100833.75;;;20.85;72.56
74542;BME280;63015;45.378;20.360;2023-06-24T00:11:30;100842.03;;;20.76;72.90
74542;BME280;63015;45.378;20.360;2023-06-24T00:13:31;100849.81;;;20.80;72.44
74542;BME280;63015;45.378;20.360;2023-06-24T00:15:31;100840.84;;;20.84;72.25
74542;BME280;63015;45.378;20.360;2023-06-24T00:17:32;100837.78;;;20.72;72.92
74542;BME280;63015;45.378;20.360;2023-06-24T00:19:32;100840.00;;;20.82;72.58
74542;BME280;63015;45.378;20.360;2023-06-24T00:21:34;100840.00;;;20.82;72.44
74542;BME280;63015;45.378;20.360;2023-06-24T00:23:37;100830.63;;;20.74;72.73
74542;BME280;63015;45.378;20.360;2023-06-24T00:25:38;100836.78;;;20.74;72.96
74542;BME280;63015;45.378;20.360;2023-06-24T00:27:39;100834.09;;;20.76;72.44
74542;BME280;63015;45.378;20.360;2023-06-24T00:29:39;100837.91;;;20.67;72.79
74542;BME280;63015;45.378;20.360;2023-06-24T00:31:40;100842.03;;;20.76;72.34
74542;BME280;63015;45.378;20.360;2023-06-24T00:33:41;100845.84;;;20.67;72.45
74542;BME280;63015;45.378;20.360;2023-06-24T00:35:42;100849.69;;;20.58;73.33
74542;BME280;63015;45.378;20.360;2023-06-24T00:37:43;100853.31;;;20.56;73.23
74542;BME280;63015;45.378;20.360;2023-06-24T00:39:45;100845.97;;;20.64;72.63
74542;BME280;63015;45.378;20.360;2023-06-24T00:41:46;100839.78;;;20.63;72.50
74542;BME280;63015;45.378;20.360;2023-06-24T00:43:47;100830.75;;;20.70;72.29
74542;BME280;63015;45.378;20.360;2023-06-24T00:45:47;100827.25;;;20.68;72.42
74542;BME280;63015;45.378;20.360;2023-06-24T00:47:49;100827.72;;;20.56;72.88
74542;BME280;63015;45.378;20.360;2023-06-24T00:49:50;100824.56;;;20.45;73.51
74542;BME280;63015;45.378;20.360;2023-06-24T00:51:51;100806.81;;;20.48;73.50
74542;BME280;63015;45.378;20.360;2023-06-24T00:53:58;100801.78;;;20.41;73.59
74542;BME280;63015;45.378;20.360;2023-06-24T00:55:59;100811.84;;;20.31;73.63
74542;BME280;63015;45.378;20.360;2023-06-24T00:58:02;100815.09;;;20.39;73.30
74542;BME280;63015;45.378;20.360;2023-06-24T01:00:04;100832.38;;;20.49;72.81
74542;BME280;63015;45.378;20.360;2023-06-24T01:02:10;100830.41;;;20.54;72.51
74542;BME280;63015;45.378;20.360;2023-06-24T01:04:12;100832.88;;;20.59;72.31
74542;BME280;63015;45.378;20.360;2023-06-24T01:06:14;100828.50;;;20.58;72.43
74542;BME280;63015;45.378;20.360;2023-06-24T01:08:15;100834.47;;;20.65;72.17
74542;BME280;63015;45.378;20.360;2023-06-24T01:10:16;100822.81;;;20.69;72.11
74542;BME280;63015;45.378;20.360;2023-06-24T01:12:16;100817.75;;;20.63;72.15
74542;BME280;63015;45.378;20.360;2023-06-24T01:14:17;100805.38;;;20.63;72.11
74542;BME280;63015;45.378;20.360;2023-06-24T01:18:35;100794.97;;;20.59;72.46
74542;BME280;63015;45.378;20.360;2023-06-24T01:21:00;100801.88;;;20.63;71.98
74542;BME280;63015;45.378;20.360;2023-06-24T01:32:31;100805.03;;;19.70;77.23
74542;BME280;63015;45.378;20.360;2023-06-24T01:34:38;100794.97;;;19.81;76.95
74542;BME280;63015;45.378;20.360;2023-06-24T01:36:55;100794.63;;;19.92;75.92
74542;BME280;63015;45.378;20.360;2023-06-24T01:39:03;100791.16;;;19.63;77.59
74542;BME280;63015;45.378;20.360;2023-06-24T01:41:06;100790.81;;;19.74;76.84
74542;BME280;63015;45.378;20.360;2023-06-24T01:43:08;100785.31;;;19.80;76.51
74542;BME280;63015;45.378;20.360;2023-06-24T01:45:16;100783.19;;;19.65;77.58
74542;BME280;63015;45.378;20.360;2023-06-24T01:47:20;100785.44;;;19.77;76.85
74542;BME280;63015;45.378;20.360;2023-06-24T01:49:23;100785.78;;;19.93;75.87
74542;BME280;63015;45.378;20.360;2023-06-24T01:51:26;100776.56;;;20.05;75.21
74542;BME280;63015;45.378;20.360;2023-06-24T01:53:28;100778.78;;;20.17;74.54
74542;BME280;63015;45.378;20.360;2023-06-24T01:55:34;100769.25;;;20.13;75.15
74542;BME280;63015;45.378;20.360;2023-06-24T01:57:40;100761.47;;;20.09;75.66
74542;BME280;63015;45.378;20.360;2023-06-24T01:59:44;100755.25;;;20.10;75.71
74542;BME280;63015;45.378;20.360;2023-06-24T02:01:46;100734.84;;;20.13;75.04
74542;BME280;63015;45.378;20.360;2023-06-24T02:03:48;100741.00;;;20.14;74.96
74542;BME280;63015;45.378;20.360;2023-06-24T02:05:51;100743.09;;;20.04;75.55
74542;BME280;63015;45.378;20.360;2023-06-24T02:07:55;100748.09;;;20.13;75.25
74542;BME280;63015;45.378;20.360;2023-06-24T02:09:59;100747.03;;;20.17;74.81
74542;BME280;63015;45.378;20.360;2023-06-24T02:12:02;100745.53;;;20.10;76.08
74542;BME280;63015;45.378;20.360;2023-06-24T02:14:05;100740.03;;;20.16;75.32
74542;BME280;63015;45.378;20.360;2023-06-24T02:16:07;100744.19;;;20.24;74.81
74542;BME280;63015;45.378;20.360;2023-06-24T02:18:10;100744.28;;;20.20;75.18
74542;BME280;63015;45.378;20.360;2023-06-24T02:20:12;100738.84;;;20.25;74.86
74542;BME280;63015;45.378;20.360;2023-06-24T02:22:15;100743.84;;;20.33;74.54
74542;BME280;63015;45.378;20.360;2023-06-24T02:24:19;100741.91;;;20.38;74.20
74542;BME280;63015;45.378;20.360;2023-06-24T02:26:20;100742.81;;;20.37;74.51
74542;BME280;63015;45.378;20.360;2023-06-24T02:28:21;100738.34;;;20.39;74.25
74542;BME280;63015;45.378;20.360;2023-06-24T02:30:23;100730.41;;;20.39;74.28
74542;BME280;63015;45.378;20.360;2023-06-24T02:32:24;100730.56;;;20.34;74.50
74542;BME280;63015;45.378;20.360;2023-06-24T02:34:27;100744.53;;;20.38;74.35
74542;BME280;63015;45.378;20.360;2023-06-24T02:36:28;100744.53;;;20.38;74.46
74542;BME280;63015;45.378;20.360;2023-06-24T02:38:29;100745.31;;;20.40;74.23
74542;BME280;63015;45.378;20.360;2023-06-24T02:40:30;100759.38;;;20.42;74.09
74542;BME280;63015;45.378;20.360;2023-06-24T02:42:31;100767.44;;;20.39;74.58
74542;BME280;63015;45.378;20.360;2023-06-24T02:44:32;100781.53;;;20.40;74.92
74542;BME280;63015;45.378;20.360;2023-06-24T02:46:34;100797.25;;;20.44;74.70
74542;BME280;63015;45.378;20.360;2023-06-24T02:48:37;100794.53;;;20.46;74.41
74542;BME280;63015;45.378;20.360;2023-06-24T02:50:39;100794.50;;;20.47;74.19
74542;BME280;63015;45.378;20.360;2023-06-24T02:52:44;100786.66;;;20.44;74.02
74542;BME280;63015;45.378;20.360;2023-06-24T02:54:48;100789.63;;;20.35;74.34
74542;BME280;63015;45.378;20.360;2023-06-24T02:57:01;100790.16;;;20.19;74.92
74542;BME280;63015;45.378;20.360;2023-06-24T02:59:20;100784.63;;;20.02;74.76
74542;BME280;63015;45.378;20.360;2023-06-24T03:01:23;100783.69;;;19.76;75.89
74542;BME280;63015;45.378;20.360;2023-06-24T03:03:30;100777.59;;;19.74;75.71
74542;BME280;63015;45.378;20.360;2023-06-24T03:05:32;100769.50;;;19.79;75.55
74542;BME280;63015;45.378;20.360;2023-06-24T03:07:37;100760.75;;;19.77;75.73
74542;BME280;63015;45.378;20.360;2023-06-24T03:09:39;100753.50;;;19.57;77.82
74542;BME280;63015;45.378;20.360;2023-06-24T03:11:41;100746.28;;;19.62;76.74
74542;BME280;63015;45.378;20.360;2023-06-24T03:13:44;100740.94;;;19.63;77.15
74542;BME280;63015;45.378;20.360;2023-06-24T03:15:56;100748.03;;;19.61;77.18
74542;BME280;63015;45.378;20.360;2023-06-24T03:17:57;100741.25;;;19.54;77.86
74542;BME280;63015;45.378;20.360;2023-06-24T03:19:59;100733.47;;;19.49;77.71
74542;BME280;63015;45.378;20.360;2023-06-24T03:21:59;100740.69;;;19.44;77.92
74542;BME280;63015;45.378;20.360;2023-06-24T03:24:00;100743.97;;;19.51;77.77
74542;BME280;63015;45.378;20.360;2023-06-24T03:26:02;100732.13;;;19.63;76.98
74542;BME280;63015;45.378;20.360;2023-06-24T03:28:06;100730.78;;;19.51;77.92
74542;BME280;63015;45.378;20.360;2023-06-24T03:30:12;100736.06;;;19.51;78.14
74542;BME280;63015;45.378;20.360;2023-06-24T03:32:15;100741.34;;;19.51;78.00
74542;BME280;63015;45.378;20.360;2023-06-24T03:34:16;100740.78;;;19.68;76.71
74542;BME280;63015;45.378;20.360;2023-06-24T03:36:17;100744.38;;;19.65;77.46
74542;BME280;63015;45.378;20.360;2023-06-24T03:38:18;100738.13;;;19.68;77.19
74542;BME280;63015;45.378;20.360;2023-06-24T03:40:20;100735.16;;;19.52;78.66
74542;BME280;63015;45.378;20.360;2023-06-24T03:42:21;100751.97;;;19.49;78.96
74542;BME280;63015;45.378;20.360;2023-06-24T03:44:22;100757.97;;;19.54;78.87
74542;BME280;63015;45.378;20.360;2023-06-24T03:46:23;100758.53;;;19.64;78.44
74542;BME280;63015;45.378;20.360;2023-06-24T03:48:23;100764.69;;;19.65;78.92
74542;BME280;63015;45.378;20.360;2023-06-24T03:50:25;100775.91;;;19.71;78.65
74542;BME280;63015;45.378;20.360;2023-06-24T03:52:26;100784.97;;;19.91;77.91
74542;BME280;63015;45.378;20.360;2023-06-24T03:54:27;100773.91;;;20.05;77.57
74542;BME280;63015;45.378;20.360;2023-06-24T03:56:28;100781.53;;;19.89;78.32
74542;BME280;63015;45.378;20.360;2023-06-24T03:58:29;100792.22;;;20.11;77.82
74542;BME280;63015;45.378;20.360;2023-06-24T04:00:30;100786.69;;;20.68;76.60
74542;BME280;63015;45.378;20.360;2023-06-24T04:02:31;100781.88;;;21.25;73.62
74542;BME280;63015;45.378;20.360;2023-06-24T04:04:33;100778.91;;;21.98;71.48
74542;BME280;63015;45.378;20.360;2023-06-24T04:06:34;100784.22;;;22.18;69.72
74542;BME280;63015;45.378;20.360;2023-06-24T04:08:34;100783.50;;;22.75;68.45
74542;BME280;63015;45.378;20.360;2023-06-24T04:10:35;100790.38;;;22.79;67.88
74542;BME280;63015;45.378;20.360;2023-06-24T04:12:36;100790.00;;;22.28;69.12
74542;BME280;63015;45.378;20.360;2023-06-24T04:14:36;100782.97;;;21.86;70.81
74542;BME280;63015;45.378;20.360;2023-06-24T04:16:38;100789.59;;;21.54;71.50
74542;BME280;63015;45.378;20.360;2023-06-24T04:18:40;100798.63;;;21.26;72.66
74542;BME280;63015;45.378;20.360;2023-06-24T04:20:41;100797.41;;;21.34;72.63
74542;BME280;63015;45.378;20.360;2023-06-24T04:22:42;100802.09;;;21.50;71.83
74542;BME280;63015;45.378;20.360;2023-06-24T04:24:42;100806.72;;;21.45;72.11
74542;BME280;63015;45.378;20.360;2023-06-24T04:26:43;100801.59;;;21.40;72.56
74542;BME280;63015;45.378;20.360;2023-06-24T04:28:44;100800.44;;;21.47;71.48
74542;BME280;63015;45.378;20.360;2023-06-24T04:30:44;100797.88;;;21.68;71.55
74542;BME280;63015;45.378;20.360;2023-06-24T04:32:45;100789.47;;;21.57;71.37
74542;BME280;63015;45.378;20.360;2023-06-24T04:34:46;100800.16;;;21.55;71.93
74542;BME280;63015;45.378;20.360;2023-06-24T04:36:46;100808.66;;;21.63;71.23
74542;BME280;63015;45.378;20.360;2023-06-24T04:38:47;100817.63;;;21.15;72.69
74542;BME280;63015;45.378;20.360;2023-06-24T04:40:48;100817.06;;;20.83;74.00
74542;BME280;63015;45.378;20.360;2023-06-24T04:42:48;100811.69;;;20.84;74.32
74542;BME280;63015;45.378;20.360;2023-06-24T04:44:49;100819.84;;;21.02;73.83
74542;BME280;63015;45.378;20.360;2023-06-24T04:46:51;100816.50;;;20.97;74.42
74542;BME280;63015;45.378;20.360;2023-06-24T04:48:53;100822.47;;;21.03;73.52
74542;BME280;63015;45.378;20.360;2023-06-24T04:50:53;100825.66;;;21.35;73.00
74542;BME280;63015;45.378;20.360;2023-06-24T04:52:55;100824.97;;;21.07;73.46
74542;BME280;63015;45.378;20.360;2023-06-24T04:54:57;100819.28;;;21.17;73.53
74542;BME280;63015;45.378;20.360;2023-06-24T04:56:57;100824.03;;;21.31;72.93
74542;BME280;63015;45.378;20.360;2023-06-24T04:58:58;100819.09;;;21.44;72.35
74542;BME280;63015;45.378;20.360;2023-06-24T05:00:59;100817.25;;;21.46;72.35
74542;BME280;63015;45.378;20.360;2023-06-24T05:02:59;100822.81;;;21.62;71.69
74542;BME280;63015;45.378;20.360;2023-06-24T05:05:00;100815.84;;;21.38;71.86
74542;BME280;63015;45.378;20.360;2023-06-24T05:07:01;100819.59;;;21.54;72.05
74542;BME280;63015;45.378;20.360;2023-06-24T05:09:01;100813.22;;;21.60;71.90
74542;BME280;63015;45.378;20.360;2023-06-24T05:11:02;100828.84;;;21.88;71.36
74542;BME280;63015;45.378;20.360;2023-06-24T05:13:02;100822.38;;;21.95;70.72
74542;BME280;63015;45.378;20.360;2023-06-24T05:15:03;100825.03;;;22.16;69.82
74542;BME280;63015;45.378;20.360;2023-06-24T05:17:04;100821.63;;;22.12;69.22
74542;BME280;63015;45.378;20.360;2023-06-24T05:19:05;100827.41;;;22.01;70.40
74542;BME280;63015;45.378;20.360;2023-06-24T05:21:06;100828.00;;;21.88;70.66
74542;BME280;63015;45.378;20.360;2023-06-24T05:23:06;100822.63;;;21.89;70.94
74542;BME280;63015;45.378;20.360;2023-06-24T05:25:07;100827.22;;;22.27;70.22
74542;BME280;63015;45.378;20.360;2023-06-24T05:27:08;100816.25;;;22.36;69.90
74542;BME280;63015;45.378;20.360;2023-06-24T05:29:08;100823.09;;;22.61;68.39
74542;BME280;63015;45.378;20.360;2023-06-24T05:31:10;100818.31;;;22.69;68.36
74542;BME280;63015;45.378;20.360;2023-06-24T05:33:11;100818.34;;;23.07;67.18
74542;BME280;63015;45.378;20.360;2023-06-24T05:35:11;100827.47;;;23.21;66.52
74542;BME280;63015;45.378;20.360;2023-06-24T05:37:12;100834.78;;;23.35;65.95
74542;BME280;63015;45.378;20.360;2023-06-24T05:39:13;100840.56;;;23.62;64.25
74542;BME280;63015;45.378;20.360;2023-06-24T05:41:14;100839.91;;;23.39;64.57
74542;BME280;63015;45.378;20.360;2023-06-24T05:43:15;100836.09;;;23.45;64.90
74542;BME280;63015;45.378;20.360;2023-06-24T05:45:15;100835.41;;;23.95;63.80
74542;BME280;63015;45.378;20.360;2023-06-24T05:47:16;100829.72;;;23.67;64.35
74542;BME280;63015;45.378;20.360;2023-06-24T05:49:17;100839.47;;;23.66;63.99
74542;BME280;63015;45.378;20.360;2023-06-24T05:51:17;100834.56;;;24.12;61.75
74542;BME280;63015;45.378;20.360;2023-06-24T05:53:18;100832.13;;;24.25;62.11
74542;BME280;63015;45.378;20.360;2023-06-24T05:55:19;100834.16;;;24.20;62.18
74542;BME280;63015;45.378;20.360;2023-06-24T05:57:19;100841.53;;;23.97;62.66
74542;BME280;63015;45.378;20.360;2023-06-24T05:59:20;100843.97;;;24.02;62.56
74542;BME280;63015;45.378;20.360;2023-06-24T06:01:21;100847.00;;;24.12;62.98
74542;BME280;63015;45.378;20.360;2023-06-24T06:03:22;100845.41;;;24.94;60.81
74542;BME280;63015;45.378;20.360;2023-06-24T06:05:22;100842.28;;;24.86;60.57
74542;BME280;63015;45.378;20.360;2023-06-24T06:07:23;100853.63;;;24.56;60.49
74542;BME280;63015;45.378;20.360;2023-06-24T06:09:24;100851.34;;;24.48;59.43
74542;BME280;63015;45.378;20.360;2023-06-24T06:11:24;100851.88;;;24.55;59.94
74542;BME280;63015;45.378;20.360;2023-06-24T06:13:25;100859.66;;;24.42;59.85
74542;BME280;63015;45.378;20.360;2023-06-24T06:15:25;100865.34;;;23.81;61.32
74542;BME280;63015;45.378;20.360;2023-06-24T06:17:26;100867.06;;;24.19;61.57
74542;BME280;63015;45.378;20.360;2023-06-24T06:19:27;100872.44;;;24.35;60.66
74542;BME280;63015;45.378;20.360;2023-06-24T06:21:27;100867.81;;;24.56;59.95
74542;BME280;63015;45.378;20.360;2023-06-24T06:23:28;100851.47;;;24.80;59.73
74542;BME280;63015;45.378;20.360;2023-06-24T06:25:29;100857.38;;;25.19;59.19
74542;BME280;63015;45.378;20.360;2023-06-24T06:27:29;100855.41;;;25.22;58.78
74542;BME280;63015;45.378;20.360;2023-06-24T06:29:30;100862.78;;;25.01;58.88
74542;BME280;63015;45.378;20.360;2023-06-24T06:31:30;100867.66;;;24.59;59.27
74542;BME280;63015;45.378;20.360;2023-06-24T06:33:31;100869.31;;;24.27;60.30
74542;BME280;63015;45.378;20.360;2023-06-24T06:35:32;100867.78;;;24.74;59.68
74542;BME280;63015;45.378;20.360;2023-06-24T06:37:32;100858.75;;;24.94;59.38
74542;BME280;63015;45.378;20.360;2023-06-24T06:39:33;100861.88;;;24.51;59.80
74542;BME280;63015;45.378;20.360;2023-06-24T06:41:33;100856.00;;;25.27;58.29
74542;BME280;63015;45.378;20.360;2023-06-24T06:43:34;100850.41;;;25.80;56.76
74542;BME280;63015;45.378;20.360;2023-06-24T06:45:35;100851.81;;;25.71;56.83
74542;BME280;63015;45.378;20.360;2023-06-24T06:47:36;100867.16;;;25.52;57.30
74542;BME280;63015;45.378;20.360;2023-06-24T06:49:36;100866.66;;;24.95;58.33
74542;BME280;63015;45.378;20.360;2023-06-24T06:51:37;100866.31;;;25.18;58.65
74542;BME280;63015;45.378;20.360;2023-06-24T06:53:37;100857.44;;;25.81;56.95
74542;BME280;63015;45.378;20.360;2023-06-24T06:55:38;100844.81;;;25.99;56.09
74542;BME280;63015;45.378;20.360;2023-06-24T06:57:39;100844.19;;;25.96;56.60
74542;BME280;63015;45.378;20.360;2023-06-24T06:59:40;100850.63;;;25.91;56.48
74542;BME280;63015;45.378;20.360;2023-06-24T07:01:41;100847.72;;;26.26;55.18
74542;BME280;63015;45.378;20.360;2023-06-24T07:03:41;100844.38;;;26.37;54.60
74542;BME280;63015;45.378;20.360;2023-06-24T07:05:42;100840.56;;;26.27;53.94
74542;BME280;63015;45.378;20.360;2023-06-24T07:07:43;100846.31;;;26.50;53.92
74542;BME280;63015;45.378;20.360;2023-06-24T07:09:45;100846.34;;;26.79;53.04
74542;BME280;63015;45.378;20.360;2023-06-24T07:11:46;100853.50;;;26.92;53.33
74542;BME280;63015;45.378;20.360;2023-06-24T07:13:47;100844.91;;;26.87;52.52
74542;BME280;63015;45.378;20.360;2023-06-24T07:15:51;100845.06;;;26.55;53.56
74542;BME280;63015;45.378;20.360;2023-06-24T07:17:51;100858.16;;;26.60;53.42
74542;BME280;63015;45.378;20.360;2023-06-24T07:19:53;100853.09;;;26.55;52.34
74542;BME280;63015;45.378;20.360;2023-06-24T07:21:54;100857.47;;;27.29;52.10
74542;BME280;63015;45.378;20.360;2023-06-24T07:23:54;100858.00;;;27.06;51.42
74542;BME280;63015;45.378;20.360;2023-06-24T07:25:55;100873.91;;;27.22;50.97
74542;BME280;63015;45.378;20.360;2023-06-24T07:27:55;100879.56;;;26.74;51.03
74542;BME280;63015;45.378;20.360;2023-06-24T07:29:56;100875.44;;;27.12;51.17
74542;BME280;63015;45.378;20.360;2023-06-24T07:31:57;100876.50;;;27.38;50.73
74542;BME280;63015;45.378;20.360;2023-06-24T07:33:57;100881.91;;;27.51;50.71
74542;BME280;63015;45.378;20.360;2023-06-24T07:35:58;100879.22;;;28.06;49.59
74542;BME280;63015;45.378;20.360;2023-06-24T07:37:59;100864.03;;;28.19;48.98
74542;BME280;63015;45.378;20.360;2023-06-24T07:40:00;100867.28;;;27.97;48.89
74542;BME280;63015;45.378;20.360;2023-06-24T07:42:01;100861.63;;;28.02;49.38
74542;BME280;63015;45.378;20.360;2023-06-24T07:44:02;100853.31;;;28.32;48.96
74542;BME280;63015;45.378;20.360;2023-06-24T07:46:03;100845.31;;;28.71;48.06
74542;BME280;63015;45.378;20.360;2023-06-24T07:48:03;100840.38;;;28.39;47.90
74542;BME280;63015;45.378;20.360;2023-06-24T07:50:05;100843.06;;;27.99;48.84
74542;BME280;63015;45.378;20.360;2023-06-24T07:52:06;100852.56;;;28.17;48.26
74542;BME280;63015;45.378;20.360;2023-06-24T07:54:07;100844.97;;;27.15;49.76
74542;BME280;63015;45.378;20.360;2023-06-24T07:56:08;100857.41;;;27.01;50.52
74542;BME280;63015;45.378;20.360;2023-06-24T07:58:08;100848.91;;;27.51;49.53
74542;BME280;63015;45.378;20.360;2023-06-24T08:00:09;100857.16;;;27.75;49.47
74542;BME280;63015;45.378;20.360;2023-06-24T08:02:13;100850.44;;;27.55;48.60
74542;BME280;63015;45.378;20.360;2023-06-24T08:04:14;100856.94;;;27.51;49.09
74542;BME280;63015;45.378;20.360;2023-06-24T08:06:16;100856.72;;;27.68;49.03
74542;BME280;63015;45.378;20.360;2023-06-24T08:08:16;100871.69;;;27.29;50.19
74542;BME280;63015;45.378;20.360;2023-06-24T08:10:20;100875.78;;;28.04;49.09
74542;BME280;63015;45.378;20.360;2023-06-24T08:12:20;100894.16;;;28.23;48.09
74542;BME280;63015;45.378;20.360;2023-06-24T08:14:21;100894.94;;;28.64;46.87
74542;BME280;63015;45.378;20.360;2023-06-24T08:16:21;100885.72;;;29.07;46.30
74542;BME280;63015;45.378;20.360;2023-06-24T08:18:22;100894.09;;;29.52;45.42
74542;BME280;63015;45.378;20.360;2023-06-24T08:20:23;100909.19;;;29.66;45.21
74542;BME280;63015;45.378;20.360;2023-06-24T08:22:24;100910.72;;;29.33;45.36
74542;BME280;63015;45.378;20.360;2023-06-24T08:24:25;100919.31;;;28.86;45.91
74542;BME280;63015;45.378;20.360;2023-06-24T08:26:26;100917.09;;;28.40;47.33
74542;BME280;63015;45.378;20.360;2023-06-24T08:28:26;100921.00;;;28.62;46.09
74542;BME280;63015;45.378;20.360;2023-06-24T08:30:27;100929.66;;;28.39;46.95
74542;BME280;63015;45.378;20.360;2023-06-24T08:32:28;100923.50;;;29.03;46.13
74542;BME280;63015;45.378;20.360;2023-06-24T08:34:28;100930.72;;;29.90;44.60
74542;BME280;63015;45.378;20.360;2023-06-24T08:36:29;100926.91;;;29.68;44.73
74542;BME280;63015;45.378;20.360;2023-06-24T08:38:29;100930.72;;;29.53;45.22
74542;BME280;63015;45.378;20.360;2023-06-24T08:40:30;100923.34;;;30.05;43.99
74542;BME280;63015;45.378;20.360;2023-06-24T08:42:31;100933.31;;;30.52;42.84
74542;BME280;63015;45.378;20.360;2023-06-24T08:44:32;100927.81;;;30.64;42.05
74542;BME280;63015;45.378;20.360;2023-06-24T08:46:32;100929.25;;;30.22;42.95
74542;BME280;63015;45.378;20.360;2023-06-24T08:48:38;100934.47;;;29.50;43.40
74542;BME280;63015;45.378;20.360;2023-06-24T08:50:44;100921.94;;;29.75;42.82
74542;BME280;63015;45.378;20.360;2023-06-24T08:52:50;100920.38;;;30.32;43.09
74542;BME280;63015;45.378;20.360;2023-06-24T08:54:55;100917.38;;;30.13;41.68
74542;BME280;63015;45.378;20.360;2023-06-24T08:56:55;100917.41;;;30.60;42.23
74542;BME280;63015;45.378;20.360;2023-06-24T08:58:56;100921.13;;;30.81;41.80
74542;BME280;63015;45.378;20.360;2023-06-24T09:00:57;100925.63;;;30.81;40.71
74542;BME280;63015;45.378;20.360;2023-06-24T09:02:58;100922.91;;;30.58;42.15
74542;BME280;63015;45.378;20.360;2023-06-24T09:04:59;100916.38;;;30.14;43.15
74542;BME280;63015;45.378;20.360;2023-06-24T09:07:00;100916.34;;;29.54;44.40
74542;BME280;63015;45.378;20.360;2023-06-24T09:09:00;100920.63;;;29.57;43.61
74542;BME280;63015;45.378;20.360;2023-06-24T09:11:01;100923.50;;;30.50;42.69
74542;BME280;63015;45.378;20.360;2023-06-24T09:13:03;100935.13;;;30.15;43.38
74542;BME280;63015;45.378;20.360;2023-06-24T09:15:04;100924.22;;;29.18;43.40
74542;BME280;63015;45.378;20.360;2023-06-24T09:17:05;100928.88;;;28.78;44.57
74542;BME280;63015;45.378;20.360;2023-06-24T09:19:06;100920.72;;;29.55;43.82
74542;BME280;63015;45.378;20.360;2023-06-24T09:21:07;100918.34;;;30.12;43.24
74542;BME280;63015;45.378;20.360;2023-06-24T09:23:08;100920.69;;;30.52;42.61
74542;BME280;63015;45.378;20.360;2023-06-24T09:25:08;100928.69;;;29.81;42.98
74542;BME280;63015;45.378;20.360;2023-06-24T09:27:11;100922.75;;;30.13;43.04
74542;BME280;63015;45.378;20.360;2023-06-24T09:29:13;100928.56;;;30.42;43.08
74542;BME280;63015;45.378;20.360;2023-06-24T09:31:15;100928.53;;;30.20;42.51
74542;BME280;63015;45.378;20.360;2023-06-24T09:33:21;100929.75;;;29.91;41.56
74542;BME280;63015;45.378;20.360;2023-06-24T09:35:26;100930.53;;;30.05;42.54
74542;BME280;63015;45.378;20.360;2023-06-24T09:37:26;100935.56;;;30.92;41.38
74542;BME280;63015;45.378;20.360;2023-06-24T09:39:38;100924.91;;;30.79;39.86
74542;BME280;63015;45.378;20.360;2023-06-24T09:41:41;100929.66;;;30.28;42.00
74542;BME280;63015;45.378;20.360;2023-06-24T09:43:43;100927.44;;;30.69;41.31
74542;BME280;63015;45.378;20.360;2023-06-24T09:45:48;100926.00;;;30.88;41.41
74542;BME280;63015;45.378;20.360;2023-06-24T09:47:49;100933.13;;;31.11;41.47
74542;BME280;63015;45.378;20.360;2023-06-24T09:49:51;100930.69;;;30.50;41.73
74542;BME280;63015;45.378;20.360;2023-06-24T09:52:01;100929.00;;;30.49;41.61
74542;BME280;63015;45.378;20.360;2023-06-24T09:54:08;100923.50;;;30.50;40.93
74542;BME280;63015;45.378;20.360;2023-06-24T09:56:10;100918.53;;;30.69;41.24
74542;BME280;63015;45.378;20.360;2023-06-24T09:58:15;100927.03;;;30.51;41.51
74542;BME280;63015;45.378;20.360;2023-06-24T10:00:19;100935.47;;;30.58;41.54
74542;BME280;63015;45.378;20.360;2023-06-24T10:02:20;100923.94;;;30.44;41.82
74542;BME280;63015;45.378;20.360;2023-06-24T10:04:21;100929.66;;;30.40;42.09
74542;BME280;63015;45.378;20.360;2023-06-24T10:06:25;100924.28;;;29.80;42.72
74542;BME280;63015;45.378;20.360;2023-06-24T10:08:27;100923.19;;;29.58;43.44
74542;BME280;63015;45.378;20.360;2023-06-24T10:10:29;100915.66;;;29.63;43.62
74542;BME280;63015;45.378;20.360;2023-06-24T10:12:29;100915.16;;;29.45;44.26
74542;BME280;63015;45.378;20.360;2023-06-24T10:14:32;100921.97;;;28.99;44.38
74542;BME280;63015;45.378;20.360;2023-06-24T10:16:32;100913.47;;;29.31;44.07
74542;BME280;63015;45.378;20.360;2023-06-24T10:18:35;100898.91;;;29.35;43.82
74542;BME280;63015;45.378;20.360;2023-06-24T10:20:36;100899.78;;;29.60;43.87
74542;BME280;63015;45.378;20.360;2023-06-24T10:22:38;100904.44;;;29.45;44.30
74542;BME280;63015;45.378;20.360;2023-06-24T10:24:41;100910.19;;;29.89;43.65
74542;BME280;63015;45.378;20.360;2023-06-24T10:26:48;100911.50;;;30.08;43.29
74542;BME280;63015;45.378;20.360;2023-06-24T10:29:17;100900.34;;;29.77;43.81
74542;BME280;63015;45.378;20.360;2023-06-24T10:33:52;100896.50;;;29.44;43.65
74542;BME280;63015;45.378;20.360;2023-06-24T10:35:53;100890.69;;;29.50;43.62
74542;BME280;63015;45.378;20.360;2023-06-24T10:37:58;100891.47;;;29.63;44.04
74542;BME280;63015;45.378;20.360;2023-06-24T10:40:00;100900.34;;;29.52;44.15
74542;BME280;63015;45.378;20.360;2023-06-24T10:44:45;100905.13;;;29.36;44.41
74542;BME280;63015;45.378;20.360;2023-06-24T10:46:53;100901.66;;;29.34;44.00